createdAt,value
2018-02-11T00:00:21.666Z,100264.76
2018-02-11T00:02:49.351Z,100255.51
2018-02-11T00:05:16.952Z,100254.83
2018-02-11T00:07:44.635Z,100247.13
2018-02-11T00:10:12.332Z,100238.66
2018-02-11T00:12:40.034Z,100233.67
2018-02-11T00:15:07.765Z,100229.11
2018-02-11T00:17:35.361Z,100231.03
2018-02-11T00:20:03.047Z,100227.25
2018-02-11T00:22:30.805Z,100225.06
2018-02-11T00:24:58.551Z,100219.59
2018-02-11T00:27:26.142Z,100218.38
2018-02-11T00:29:53.843Z,100205.88
2018-02-11T00:32:21.550Z,100201.91
2018-02-11T00:34:49.252Z,100205.66
2018-02-11T00:40:19.406Z,100208.64
2018-02-11T00:42:47.075Z,100207.81
2018-02-11T00:45:14.770Z,100202.57
2018-02-11T00:47:42.522Z,100193.52
2018-02-11T00:50:10.248Z,100194.75
2018-02-11T00:52:38.898Z,100189.33
2018-02-11T00:55:06.624Z,100184.56
2018-02-11T00:57:34.348Z,100177.61
2018-02-11T01:00:02.151Z,100175.99
2018-02-11T01:02:29.830Z,100168.82
2018-02-11T01:04:57.549Z,100159.39
2018-02-11T01:07:25.217Z,100160.63
2018-02-11T01:09:52.969Z,100153.02
2018-02-11T01:12:20.669Z,100139.02
2018-02-11T01:14:48.426Z,100131.20
2018-02-11T01:17:16.110Z,100130.19
2018-02-11T01:19:43.862Z,100127.05
2018-02-11T01:22:11.548Z,100121.55
2018-02-11T01:24:39.293Z,100113.83
2018-02-11T01:27:07.017Z,100111.41
2018-02-11T01:29:34.734Z,100109.16
2018-02-11T01:32:02.466Z,100099.92
2018-02-11T01:34:30.152Z,100092.83
2018-02-11T01:36:57.826Z,100081.30
2018-02-11T01:39:25.541Z,100072.96
2018-02-11T01:41:53.232Z,100066.94
2018-02-11T01:44:20.950Z,100053.73
2018-02-11T01:46:48.624Z,100047.25
2018-02-11T01:49:16.326Z,100037.11
2018-02-11T01:51:44.014Z,100027.83
2018-02-11T01:54:11.727Z,100014.03
2018-02-11T01:56:39.439Z,100002.54
2018-02-11T01:59:07.618Z,99996.28
2018-02-11T02:01:35.315Z,99985.99
2018-02-11T02:04:03.047Z,99961.65
2018-02-11T02:06:30.737Z,99952.83
2018-02-11T02:08:58.450Z,99939.52
2018-02-11T02:11:26.127Z,99937.83
2018-02-11T02:13:53.834Z,99935.57
2018-02-11T02:16:21.611Z,99938.17
2018-02-11T02:18:49.326Z,99926.15
2018-02-11T02:21:16.983Z,99919.11
2018-02-11T02:23:44.716Z,99904.38
2018-02-11T02:26:12.390Z,99891.33
2018-02-11T02:28:40.138Z,99904.02
2018-02-11T02:31:07.801Z,99902.95
2018-02-11T02:33:35.516Z,99895.77
2018-02-11T02:36:03.193Z,99892.41
2018-02-11T02:38:31.012Z,99886.41
2018-02-11T02:40:58.681Z,99884.33
2018-02-11T02:43:26.444Z,99874.86
2018-02-11T02:45:54.115Z,99870.38
2018-02-11T02:48:21.826Z,99859.66
2018-02-11T02:50:49.502Z,99851.13
2018-02-11T02:53:17.208Z,99851.02
2018-02-11T02:55:44.888Z,99841.33
2018-02-11T02:58:12.607Z,99833.47
2018-02-11T03:00:40.274Z,99827.44
2018-02-11T03:03:08.011Z,99816.39
2018-02-11T03:05:35.806Z,99813.34
2018-02-11T03:08:03.577Z,99789.88
2018-02-11T03:10:31.255Z,99778.18
2018-02-11T03:12:59.009Z,99791.76
2018-02-11T03:15:26.702Z,99776.03
2018-02-11T03:17:54.467Z,99778.00
2018-02-11T03:20:22.189Z,99755.74
2018-02-11T03:22:49.898Z,99768.89
2018-02-11T03:25:17.621Z,99746.45
2018-02-11T03:27:45.312Z,99738.12
2018-02-11T03:30:13.006Z,99732.61
2018-02-11T03:32:40.741Z,99722.34
2018-02-11T03:35:08.399Z,99706.22
2018-02-11T03:37:36.114Z,99716.30
2018-02-11T03:40:03.804Z,99707.83
2018-02-11T03:42:31.537Z,99712.41
2018-02-11T03:44:59.207Z,99702.20
2018-02-11T03:47:26.966Z,99708.56
2018-02-11T03:49:54.652Z,99696.02
2018-02-11T03:52:22.358Z,99695.89
2018-02-11T03:54:50.058Z,99687.86
2018-02-11T03:57:17.879Z,99665.06
2018-02-11T03:59:45.612Z,99660.14
2018-02-11T04:02:13.318Z,99653.78
2018-02-11T04:04:41.045Z,99660.84
2018-02-11T04:07:08.776Z,99654.62
2018-02-11T04:09:36.457Z,99648.44
2018-02-11T04:12:04.182Z,99649.05
2018-02-11T04:14:31.848Z,99648.27
2018-02-11T04:16:59.537Z,99650.35
2018-02-11T04:19:27.227Z,99639.73
2018-02-11T04:21:54.966Z,99629.06
2018-02-11T04:24:22.674Z,99623.61
2018-02-11T04:26:50.405Z,99615.92
2018-02-11T04:29:18.229Z,99608.50
2018-02-11T04:31:45.914Z,99600.20
2018-02-11T04:34:13.626Z,99595.11
2018-02-11T04:36:41.355Z,99600.03
2018-02-11T04:39:09.054Z,99601.34
2018-02-11T04:41:36.729Z,99592.90
2018-02-11T04:44:04.510Z,99597.09
2018-02-11T04:46:32.182Z,99588.20
2018-02-11T04:48:59.908Z,99572.92
2018-02-11T04:51:27.578Z,99563.27
2018-02-11T04:53:55.326Z,99550.30
2018-02-11T04:56:22.990Z,99554.67
2018-02-11T04:58:50.721Z,99547.95
2018-02-11T05:01:18.390Z,99546.63
2018-02-11T05:03:46.090Z,99545.87
2018-02-11T05:06:13.754Z,99554.31
2018-02-11T05:08:41.461Z,99549.95
2018-02-11T05:11:09.144Z,99547.55
2018-02-11T05:13:36.861Z,99541.06
2018-02-11T05:16:04.538Z,99525.81
2018-02-11T05:18:32.270Z,99523.17
2018-02-11T05:20:59.964Z,99512.99
2018-02-11T05:23:27.659Z,99508.66
2018-02-11T05:25:55.385Z,99506.44
2018-02-11T05:28:23.083Z,99507.94
2018-02-11T05:30:50.815Z,99513.55
2018-02-11T05:33:18.530Z,99501.31
2018-02-11T05:35:46.253Z,99494.59
2018-02-11T05:38:13.948Z,99501.08
2018-02-11T05:40:41.625Z,99488.28
2018-02-11T05:43:09.427Z,99492.05
2018-02-11T05:45:37.111Z,99487.20
2018-02-11T05:48:04.826Z,99479.86
2018-02-11T05:50:32.507Z,99481.61
2018-02-11T05:53:00.211Z,99485.49
2018-02-11T05:55:27.883Z,99476.54
2018-02-11T05:57:55.590Z,99476.54
2018-02-11T06:00:23.342Z,99474.61
2018-02-11T06:02:51.056Z,99475.48
2018-02-11T06:05:18.734Z,99474.52
2018-02-11T06:07:46.415Z,99471.06
2018-02-11T06:10:14.192Z,99468.25
2018-02-11T06:12:41.866Z,99470.76
2018-02-11T06:15:09.578Z,99469.15
2018-02-11T06:17:37.253Z,99475.05
2018-02-11T06:20:04.961Z,99474.02
2018-02-11T06:22:32.637Z,99479.80
2018-02-11T06:25:00.340Z,99476.52
2018-02-11T06:27:28.054Z,99477.78
2018-02-11T06:29:55.762Z,99481.22
2018-02-11T06:32:23.490Z,99475.64
2018-02-11T06:34:51.281Z,99477.85
2018-02-11T06:37:18.959Z,99471.67
2018-02-11T06:39:46.660Z,99464.37
2018-02-11T06:42:14.344Z,99463.52
2018-02-11T06:44:42.039Z,99465.59
2018-02-11T06:47:09.726Z,99461.88
2018-02-11T06:49:37.546Z,99460.89
2018-02-11T06:52:05.219Z,99466.22
2018-02-11T06:54:32.976Z,99463.08
2018-02-11T06:57:00.638Z,99458.75
2018-02-11T06:59:28.334Z,99454.58
2018-02-11T07:01:56.047Z,99463.79
2018-02-11T07:04:23.758Z,99460.37
2018-02-11T07:06:51.497Z,99465.90
2018-02-11T07:09:19.192Z,99453.17
2018-02-11T07:11:46.871Z,99455.52
2018-02-11T07:14:14.631Z,99451.10
2018-02-11T07:16:42.314Z,99452.23
2018-02-11T07:19:10.028Z,99455.72
2018-02-11T07:21:37.695Z,99463.42
2018-02-11T07:24:05.379Z,99483.09
2018-02-11T07:26:32.971Z,99471.34
2018-02-11T07:29:00.725Z,99463.47
2018-02-11T07:31:28.405Z,99468.95
2018-02-11T07:33:56.028Z,99466.05
2018-02-11T07:36:23.730Z,99469.48
2018-02-11T07:38:51.327Z,99465.58
2018-02-11T07:41:19.074Z,99458.84
2018-02-11T07:43:46.758Z,99450.64
2018-02-11T07:46:14.427Z,99453.86
2018-02-11T07:48:42.187Z,99463.97
2018-02-11T07:51:09.816Z,99460.69
2018-02-11T07:53:37.430Z,99454.48
2018-02-11T07:56:05.035Z,99461.51
2018-02-11T07:58:32.649Z,99464.12
2018-02-11T08:01:00.306Z,99458.95
2018-02-11T08:03:27.974Z,99470.99
2018-02-11T08:05:55.594Z,99468.09
2018-02-11T08:08:23.210Z,99465.95
2018-02-11T08:10:50.839Z,99466.77
2018-02-11T08:13:18.486Z,99469.16
2018-02-11T08:15:46.084Z,99469.95
2018-02-11T08:18:13.762Z,99475.91
2018-02-11T08:20:41.362Z,99466.55
2018-02-11T08:23:09.026Z,99472.38
2018-02-11T08:25:36.616Z,99478.88
2018-02-11T08:28:04.265Z,99481.70
2018-02-11T08:30:31.874Z,99465.27
2018-02-11T08:32:59.659Z,99471.61
2018-02-11T08:35:27.282Z,99479.47
2018-02-11T08:37:54.914Z,99481.98
2018-02-11T08:40:22.566Z,99494.83
2018-02-11T08:42:50.234Z,99493.50
2018-02-11T08:45:17.901Z,99492.59
2018-02-11T08:47:45.496Z,99496.78
2018-02-11T08:50:13.102Z,99491.70
2018-02-11T08:52:40.726Z,99485.63
2018-02-11T08:55:08.395Z,99488.27
2018-02-11T08:57:36.142Z,99484.48
2018-02-11T09:00:03.805Z,99480.63
2018-02-11T09:02:31.570Z,99484.77
2018-02-11T09:04:59.206Z,99492.33
2018-02-11T09:07:26.797Z,99495.83
2018-02-11T09:09:54.444Z,99493.48
2018-02-11T09:12:22.038Z,99488.21
2018-02-11T09:14:49.705Z,99482.53
2018-02-11T09:17:17.348Z,99491.61
2018-02-11T09:19:44.973Z,99496.15
2018-02-11T09:22:12.576Z,99489.83
2018-02-11T09:24:40.250Z,99486.26
2018-02-11T09:27:07.862Z,99486.69
2018-02-11T09:29:35.507Z,99484.06
2018-02-11T09:32:03.519Z,99487.53
2018-02-11T09:34:31.184Z,99484.80
2018-02-11T10:12:02.990Z,99486.09
2018-02-11T10:17:28.843Z,99489.65
2018-02-11T10:28:07.376Z,99498.55
2018-02-11T10:30:38.352Z,99497.33
2018-02-11T10:33:07.375Z,99507.54
2018-02-11T10:38:20.482Z,99507.70
2018-02-11T10:40:49.394Z,99511.52
2018-02-11T10:43:17.469Z,99515.86
2018-02-11T10:46:07.059Z,99507.05
2018-02-11T11:08:28.095Z,99506.36
2018-02-11T11:10:55.781Z,99504.69
2018-02-11T11:13:23.450Z,99503.28
2018-02-11T11:15:51.050Z,99498.79
2018-02-11T11:18:18.740Z,99499.09
2018-02-11T11:20:46.484Z,99499.63
2018-02-11T11:23:14.217Z,99500.84
2018-02-11T11:25:42.255Z,99501.12
2018-02-11T11:28:09.919Z,99490.48
2018-02-11T11:30:37.620Z,99484.75
2018-02-11T11:33:05.294Z,99493.53
2018-02-11T11:35:32.891Z,99481.05
2018-02-11T11:38:00.672Z,99487.44
2018-02-11T11:40:28.295Z,99483.45
2018-02-11T11:42:55.940Z,99479.36
2018-02-11T11:45:23.554Z,99484.54
2018-02-11T11:47:51.224Z,99478.00
2018-02-11T11:50:18.852Z,99476.77
2018-02-11T11:52:46.533Z,99472.09
2018-02-11T11:55:14.190Z,99478.20
2018-02-11T11:57:41.817Z,99488.89
2018-02-11T12:00:09.470Z,99471.75
2018-02-11T12:02:37.152Z,99476.17
2018-02-11T12:05:04.781Z,99478.69
2018-02-11T12:07:32.438Z,99478.89
2018-02-11T12:10:00.037Z,99501.57
2018-02-11T12:12:27.722Z,99506.65
2018-02-11T12:14:55.423Z,99501.99
2018-02-11T12:17:23.591Z,99492.53
2018-02-11T12:19:51.206Z,99477.05
2018-02-11T12:22:18.906Z,99475.47
2018-02-11T12:24:47.412Z,99491.86
2018-02-11T12:27:15.220Z,99497.61
2018-02-11T12:29:42.906Z,99492.30
2018-02-11T12:34:51.110Z,99477.69
2018-02-11T12:37:18.757Z,99479.43
2018-02-11T12:39:46.389Z,99485.55
2018-02-11T12:42:14.012Z,99488.06
2018-02-11T12:44:41.650Z,99480.08
2018-02-11T12:47:09.383Z,99484.86
2018-02-11T12:49:37.083Z,99482.23
2018-02-11T12:52:04.728Z,99482.23
2018-02-11T12:54:32.386Z,99488.34
2018-02-11T12:57:00.191Z,99491.01
2018-02-11T12:59:27.836Z,99486.64
2018-02-11T13:01:55.473Z,99487.59
2018-02-11T13:04:23.093Z,99493.05
2018-02-11T13:06:50.723Z,99494.65
2018-02-11T13:09:18.340Z,99512.72
2018-02-11T13:11:45.974Z,99505.53
2018-02-11T13:14:13.659Z,99518.55
2018-02-11T13:16:41.296Z,99509.09
2018-02-11T13:19:08.918Z,99507.88
2018-02-11T13:21:36.582Z,99509.23
2018-02-11T13:24:04.243Z,99505.81
2018-02-11T13:26:31.938Z,99507.94
2018-02-11T13:28:59.698Z,99501.43
2018-02-11T13:31:27.331Z,99509.80
2018-02-11T13:33:55.768Z,99514.32
2018-02-11T13:36:23.512Z,99513.91
2018-02-11T13:38:51.280Z,99524.02
2018-02-11T13:41:19.027Z,99526.27
2018-02-11T13:43:46.647Z,99540.81
2018-02-11T13:46:14.289Z,99528.03
2018-02-11T13:48:41.887Z,99526.29
2018-02-11T13:51:09.565Z,99524.97
2018-02-11T13:53:37.167Z,99547.20
2018-02-11T13:56:04.964Z,99533.36
2018-02-11T13:58:32.627Z,99528.30
2018-02-11T14:01:00.313Z,99536.66
2018-02-11T14:03:27.974Z,99545.98
2018-02-11T14:05:55.710Z,99541.70
2018-02-11T14:08:23.344Z,99558.83
2018-02-11T14:10:50.996Z,99560.95
2018-02-11T14:13:18.658Z,99567.75
2018-02-11T14:15:46.298Z,99570.79
2018-02-11T14:18:13.965Z,99574.53
2018-02-11T14:20:41.605Z,99571.19
2018-02-11T14:23:09.233Z,99574.36
2018-02-11T14:25:36.928Z,99574.20
2018-02-11T14:28:04.565Z,99570.02
2018-02-11T14:30:32.210Z,99569.77
2018-02-11T14:32:59.818Z,99571.69
2018-02-11T14:35:27.562Z,99561.78
2018-02-11T14:37:55.217Z,99560.63
2018-02-11T14:40:22.990Z,99567.03
2018-02-11T14:42:50.637Z,99578.55
2018-02-11T14:45:18.291Z,99588.53
2018-02-11T14:47:45.898Z,99601.03
2018-02-11T14:50:13.550Z,99604.86
2018-02-11T14:52:41.281Z,99598.73
2018-02-11T14:55:08.928Z,99597.23
2018-02-11T14:57:36.592Z,99591.88
2018-02-11T15:00:04.210Z,99601.93
2018-02-11T15:02:31.892Z,99586.78
2018-02-11T15:04:59.658Z,99582.58
2018-02-11T15:07:27.307Z,99582.47
2018-02-11T15:09:55.123Z,99580.38
2018-02-11T15:12:22.794Z,99581.20
2018-02-11T15:14:50.428Z,99585.47
2018-02-11T15:17:18.091Z,99586.12
2018-02-11T15:19:45.777Z,99596.26
2018-02-11T15:22:13.492Z,99600.23
2018-02-11T15:24:41.132Z,99605.11
2018-02-11T15:27:08.868Z,99615.13
2018-02-11T15:29:36.483Z,99610.66
2018-02-11T15:32:04.322Z,99607.60
2018-02-11T15:34:32.080Z,99605.45
2018-02-11T15:36:59.730Z,99618.95
2018-02-11T15:39:27.580Z,99607.02
2018-02-11T15:41:55.256Z,99615.80
2018-02-11T15:44:22.920Z,99624.43
2018-02-11T15:46:50.641Z,99625.13
2018-02-11T15:49:18.291Z,99616.56
2018-02-11T15:51:45.992Z,99619.34
2018-02-11T15:54:13.612Z,99619.56
2018-02-11T15:56:41.255Z,99629.44
2018-02-11T15:59:08.944Z,99620.52
2018-02-11T16:01:36.607Z,99626.31
2018-02-11T16:04:04.225Z,99633.72
2018-02-11T16:06:31.877Z,99645.13
2018-02-11T16:08:59.498Z,99641.91
2018-02-11T16:11:27.116Z,99631.25
2018-02-11T16:13:54.755Z,99639.62
2018-02-11T16:16:22.424Z,99638.45
2018-02-11T16:18:50.060Z,99637.78
2018-02-11T16:21:17.684Z,99640.66
2018-02-11T16:23:45.316Z,99644.20
2018-02-11T16:26:12.944Z,99651.59
2018-02-11T16:28:40.587Z,99652.22
2018-02-11T16:31:08.199Z,99643.83
2018-02-11T16:33:36.631Z,99654.11
2018-02-11T16:36:04.231Z,99653.92
2018-02-11T16:38:31.905Z,99657.06
2018-02-11T16:40:59.554Z,99650.27
2018-02-11T16:43:27.321Z,99656.34
2018-02-11T16:45:54.955Z,99658.87
2018-02-11T16:48:22.609Z,99656.44
2018-02-11T16:50:50.243Z,99660.81
2018-02-11T16:53:17.883Z,99660.53
2018-02-11T16:55:45.624Z,99664.27
2018-02-11T16:58:13.335Z,99671.25
2018-02-11T17:00:40.937Z,99673.91
2018-02-11T17:03:09.288Z,99682.53
2018-02-11T17:05:37.001Z,99685.04
2018-02-11T17:08:04.639Z,99695.13
2018-02-11T17:10:32.263Z,99689.22
2018-02-11T17:12:59.936Z,99692.09
2018-02-11T17:15:27.533Z,99697.81
2018-02-11T17:17:55.173Z,99700.29
2018-02-11T17:20:22.869Z,99705.84
2018-02-11T17:22:50.576Z,99708.34
2018-02-11T17:25:18.159Z,99704.40
2018-02-11T17:27:45.842Z,99719.25
2018-02-11T17:30:13.480Z,99724.58
2018-02-11T17:32:41.100Z,99730.94
2018-02-11T17:35:08.703Z,99729.89
2018-02-11T17:37:36.335Z,99726.98
2018-02-11T17:40:03.948Z,99727.62
2018-02-11T17:42:31.665Z,99731.31
2018-02-11T17:44:59.361Z,99734.37
2018-02-11T17:47:27.007Z,99741.42
2018-02-11T17:49:54.614Z,99740.50
2018-02-11T17:52:22.866Z,99750.08
2018-02-11T17:54:50.612Z,99751.75
2018-02-11T17:57:18.276Z,99753.46
2018-02-11T17:59:45.900Z,99761.17
2018-02-11T18:02:13.659Z,99772.86
2018-02-11T18:04:42.127Z,99770.71
2018-02-11T18:07:09.776Z,99773.08
2018-02-11T18:09:37.439Z,99771.78
2018-02-11T18:12:05.107Z,99784.39
2018-02-11T18:14:32.707Z,99774.50
2018-02-11T18:17:00.345Z,99782.84
2018-02-11T18:19:27.965Z,99771.03
2018-02-11T18:21:55.688Z,99767.64
2018-02-11T18:24:23.295Z,99776.99
2018-02-11T18:26:50.924Z,99775.76
2018-02-11T18:29:18.547Z,99792.59
2018-02-11T18:31:46.179Z,99795.25
2018-02-11T18:34:13.845Z,99796.66
2018-02-11T18:36:41.516Z,99799.86
2018-02-11T18:39:09.140Z,99793.33
2018-02-11T18:41:36.757Z,99801.49
2018-02-11T18:44:04.430Z,99795.30
2018-02-11T18:46:32.053Z,99810.34
2018-02-11T18:48:59.645Z,99816.97
2018-02-11T18:51:27.304Z,99821.16
2018-02-11T18:53:54.904Z,99819.20
2018-02-11T18:56:22.555Z,99829.09
2018-02-11T18:58:50.184Z,99832.08
2018-02-11T19:01:17.823Z,99834.22
2018-02-11T19:03:45.416Z,99835.26
2018-02-11T19:06:13.096Z,99833.50
2018-02-11T19:08:40.699Z,99845.91
2018-02-11T19:11:08.339Z,99838.08
2018-02-11T19:13:35.976Z,99830.87
2018-02-11T19:16:03.606Z,99839.89
2018-02-11T19:18:31.316Z,99836.13
2018-02-11T19:20:58.915Z,99842.27
2018-02-11T19:23:26.545Z,99842.59
2018-02-11T19:25:54.216Z,99843.42
2018-02-11T19:28:21.843Z,99845.44
2018-02-11T19:30:49.454Z,99844.53
2018-02-11T19:33:17.110Z,99855.61
2018-02-11T19:35:44.780Z,99849.90
2018-02-11T19:38:12.426Z,99854.33
2018-02-11T19:40:40.081Z,99856.45
2018-02-11T19:43:07.742Z,99854.59
2018-02-11T19:45:35.356Z,99851.39
2018-02-11T19:48:03.056Z,99855.27
2018-02-11T19:50:30.680Z,99854.78
2018-02-11T19:52:58.487Z,99861.28
2018-02-11T19:55:26.107Z,99859.26
2018-02-11T19:57:53.878Z,99858.59
2018-02-11T20:00:21.610Z,99860.53
2018-02-11T20:02:49.297Z,99865.88
2018-02-11T20:05:16.966Z,99862.92
2018-02-11T20:07:44.642Z,99865.56
2018-02-11T20:10:12.323Z,99863.47
2018-02-11T20:12:39.996Z,99868.64
2018-02-11T20:15:07.714Z,99858.66
2018-02-11T20:17:35.419Z,99855.67
2018-02-11T20:20:03.182Z,99852.30
2018-02-11T20:22:30.916Z,99856.87
2018-02-11T20:24:58.502Z,99862.38
2018-02-11T20:27:26.116Z,99867.58
2018-02-11T20:29:53.783Z,99866.70
2018-02-11T20:32:21.404Z,99875.78
2018-02-11T20:34:49.027Z,99875.52
2018-02-11T20:37:16.692Z,99875.80
2018-02-11T20:39:44.331Z,99880.01
2018-02-11T20:42:11.991Z,99875.20
2018-02-11T20:44:39.710Z,99878.45
2018-02-11T20:47:07.310Z,99887.66
2018-02-11T20:49:34.992Z,99891.92
2018-02-11T20:52:02.680Z,99886.63
2018-02-11T20:54:30.350Z,99887.59
2018-02-11T20:56:58.026Z,99888.98
2018-02-11T20:59:25.689Z,99894.39
2018-02-11T21:01:53.406Z,99900.71
2018-02-11T21:04:21.123Z,99905.83
2018-02-11T21:06:48.747Z,99905.03
2018-02-11T21:09:16.407Z,99900.83
2018-02-11T21:11:44.041Z,99907.67
2018-02-11T21:14:11.764Z,99915.31
2018-02-11T21:16:39.414Z,99909.17
2018-02-11T21:19:07.111Z,99910.37
2018-02-11T21:21:34.730Z,99916.93
2018-02-11T21:24:02.452Z,99920.73
2018-02-11T21:26:30.119Z,99921.45
2018-02-11T21:28:57.863Z,99922.48
2018-02-11T21:31:25.456Z,99944.76
2018-02-11T21:33:53.116Z,99948.88
2018-02-11T21:36:20.739Z,99947.11
2018-02-11T21:38:48.462Z,99955.05
2018-02-11T21:41:16.078Z,99958.78
2018-02-11T21:43:43.700Z,99962.16
2018-02-11T21:46:11.407Z,99958.66
2018-02-11T21:48:39.045Z,99971.66
2018-02-11T21:51:06.736Z,99968.05
2018-02-11T21:53:34.381Z,99975.81
2018-02-11T21:56:02.027Z,99981.16
2018-02-11T21:58:29.804Z,99984.72
2018-02-11T22:00:57.462Z,99980.37
2018-02-11T22:03:25.107Z,99971.52
2018-02-11T22:05:53.015Z,99982.28
2018-02-11T22:08:20.700Z,99967.38
2018-02-11T22:10:48.353Z,99963.20
2018-02-11T22:13:15.990Z,99952.52
2018-02-11T22:15:43.660Z,99962.20
2018-02-11T22:18:11.348Z,99968.20
2018-02-11T22:20:38.975Z,99979.07
2018-02-11T22:23:06.719Z,99981.36
2018-02-11T22:25:34.470Z,99978.89
2018-02-11T22:28:02.069Z,99978.06
2018-02-11T22:30:29.726Z,99983.78
2018-02-11T22:32:57.403Z,99983.05
2018-02-11T22:35:25.058Z,99991.06
2018-02-11T22:37:52.760Z,99992.33
2018-02-11T22:40:20.557Z,99996.41
2018-02-11T22:42:48.175Z,99995.74
2018-02-11T22:45:15.822Z,99996.23
2018-02-11T22:47:43.591Z,100003.80
2018-02-11T22:50:11.234Z,100005.55
2018-02-11T22:52:38.874Z,100012.58
2018-02-11T22:55:06.522Z,100018.78
2018-02-11T22:57:34.138Z,100020.28
2018-02-11T23:00:01.751Z,100015.96
2018-02-11T23:02:29.480Z,100022.92
2018-02-11T23:04:57.100Z,100022.34
2018-02-11T23:07:24.822Z,100019.25
2018-02-11T23:09:52.449Z,100016.55
2018-02-11T23:12:20.095Z,100031.68
2018-02-11T23:14:47.767Z,100026.77
2018-02-11T23:17:15.397Z,100022.63
2018-02-11T23:19:50.795Z,100025.98
2018-02-11T23:22:18.461Z,100029.42
2018-02-11T23:24:46.057Z,100033.21
2018-02-11T23:27:13.693Z,100039.14
2018-02-11T23:29:41.302Z,100043.17
2018-02-11T23:32:09.037Z,100045.11
2018-02-11T23:34:36.686Z,100039.38
2018-02-11T23:37:04.338Z,100051.28
2018-02-11T23:39:31.963Z,100043.64
2018-02-11T23:41:59.635Z,100042.26
2018-02-11T23:44:27.242Z,100047.14
2018-02-11T23:46:54.887Z,100048.77
2018-02-11T23:49:22.607Z,100052.20
2018-02-11T23:51:50.302Z,100056.96
2018-02-11T23:54:17.947Z,100054.48
2018-02-11T23:56:45.663Z,100055.75
2018-02-11T23:59:13.339Z,100064.33
